sensor_id;sensor_type;location;lat;lon;timestamp;temperature;humidity
69932;DHT22;57243;52.064;5.116;2022-09-03T00:01:22;24.30;42.30
69932;DHT22;57243;52.064;5.116;2022-09-03T00:03:58;24.30;42.30
69932;DHT22;57243;52.064;5.116;2022-09-03T00:06:37;24.20;42.30
69932;DHT22;57243;52.064;5.116;2022-09-03T00:12:13;24.20;42.30
69932;DHT22;57243;52.064;5.116;2022-09-03T00:15:32;24.20;42.20
69932;DHT22;57243;52.064;5.116;2022-09-03T00:17:49;24.20;42.20
69932;DHT22;57243;52.064;5.116;2022-09-03T00:20:30;24.20;42.20
69932;DHT22;57243;52.064;5.116;2022-09-03T00:23:00;24.20;42.20
69932;DHT22;57243;52.064;5.116;2022-09-03T00:28:19;24.20;42.10
69932;DHT22;57243;52.064;5.116;2022-09-03T00:30:51;24.20;42.10
69932;DHT22;57243;52.064;5.116;2022-09-03T00:33:25;24.20;42.10
69932;DHT22;57243;52.064;5.116;2022-09-03T00:39:15;24.20;42.00
69932;DHT22;57243;52.064;5.116;2022-09-03T00:42:02;24.20;42.10
69932;DHT22;57243;52.064;5.116;2022-09-03T00:54:05;24.20;42.00
69932;DHT22;57243;52.064;5.116;2022-09-03T00:56:50;24.20;41.90
69932;DHT22;57243;52.064;5.116;2022-09-03T01:08:02;24.10;41.90
69932;DHT22;57243;52.064;5.116;2022-09-03T01:13:40;24.10;41.70
69932;DHT22;57243;52.064;5.116;2022-09-03T01:30:22;24.10;41.70
69932;DHT22;57243;52.064;5.116;2022-09-03T01:47:31;24.10;41.70
69932;DHT22;57243;52.064;5.116;2022-09-03T01:50:02;24.10;41.80
69932;DHT22;57243;52.064;5.116;2022-09-03T01:58:17;24.10;41.80
69932;DHT22;57243;52.064;5.116;2022-09-03T02:00:50;24.00;41.80
69932;DHT22;57243;52.064;5.116;2022-09-03T02:03:23;24.00;41.70
69932;DHT22;57243;52.064;5.116;2022-09-03T02:05:50;24.00;41.70
69932;DHT22;57243;52.064;5.116;2022-09-03T02:08:18;24.00;41.80
69932;DHT22;57243;52.064;5.116;2022-09-03T02:10:49;24.00;41.70
69932;DHT22;57243;52.064;5.116;2022-09-03T02:13:23;24.00;41.70
69932;DHT22;57243;52.064;5.116;2022-09-03T02:15:51;24.00;41.70
69932;DHT22;57243;52.064;5.116;2022-09-03T02:18:21;24.00;41.80
69932;DHT22;57243;52.064;5.116;2022-09-03T02:20:49;24.00;41.90
69932;DHT22;57243;52.064;5.116;2022-09-03T02:23:16;24.00;41.70
69932;DHT22;57243;52.064;5.116;2022-09-03T02:25:44;24.00;41.80
69932;DHT22;57243;52.064;5.116;2022-09-03T02:28:12;24.00;41.70
69932;DHT22;57243;52.064;5.116;2022-09-03T02:30:40;24.00;41.70
69932;DHT22;57243;52.064;5.116;2022-09-03T02:33:05;24.00;41.70
69932;DHT22;57243;52.064;5.116;2022-09-03T02:35:31;24.00;41.70
69932;DHT22;57243;52.064;5.116;2022-09-03T02:37:56;24.00;41.60
69932;DHT22;57243;52.064;5.116;2022-09-03T02:40:33;24.00;41.60
69932;DHT22;57243;52.064;5.116;2022-09-03T02:43:01;24.00;41.60
69932;DHT22;57243;52.064;5.116;2022-09-03T02:45:28;24.00;41.60
69932;DHT22;57243;52.064;5.116;2022-09-03T02:47:56;24.00;41.60
69932;DHT22;57243;52.064;5.116;2022-09-03T02:50:23;24.00;41.60
69932;DHT22;57243;52.064;5.116;2022-09-03T02:52:49;24.00;41.50
69932;DHT22;57243;52.064;5.116;2022-09-03T02:55:15;24.00;41.60
69932;DHT22;57243;52.064;5.116;2022-09-03T02:57:41;24.00;41.50
69932;DHT22;57243;52.064;5.116;2022-09-03T03:00:08;24.00;41.50
69932;DHT22;57243;52.064;5.116;2022-09-03T03:02:34;24.00;41.50
69932;DHT22;57243;52.064;5.116;2022-09-03T03:04:59;24.00;41.50
69932;DHT22;57243;52.064;5.116;2022-09-03T03:07:28;24.00;41.50
69932;DHT22;57243;52.064;5.116;2022-09-03T03:09:56;24.00;41.50
69932;DHT22;57243;52.064;5.116;2022-09-03T03:12:21;24.00;41.60
69932;DHT22;57243;52.064;5.116;2022-09-03T03:14:47;24.00;41.50
69932;DHT22;57243;52.064;5.116;2022-09-03T03:17:12;24.00;41.40
69932;DHT22;57243;52.064;5.116;2022-09-03T03:19:38;24.00;41.50
69932;DHT22;57243;52.064;5.116;2022-09-03T03:22:04;24.00;41.50
69932;DHT22;57243;52.064;5.116;2022-09-03T03:24:29;24.00;41.40
69932;DHT22;57243;52.064;5.116;2022-09-03T03:26:57;24.00;41.40
69932;DHT22;57243;52.064;5.116;2022-09-03T03:29:23;24.00;41.50
69932;DHT22;57243;52.064;5.116;2022-09-03T03:31:50;24.00;41.60
69932;DHT22;57243;52.064;5.116;2022-09-03T03:34:16;24.00;41.50
69932;DHT22;57243;52.064;5.116;2022-09-03T03:36:41;24.00;41.60
69932;DHT22;57243;52.064;5.116;2022-09-03T03:39:07;24.00;41.60
69932;DHT22;57243;52.064;5.116;2022-09-03T03:41:34;24.00;41.50
69932;DHT22;57243;52.064;5.116;2022-09-03T03:44:03;24.00;41.50
69932;DHT22;57243;52.064;5.116;2022-09-03T03:46:39;24.00;41.60
69932;DHT22;57243;52.064;5.116;2022-09-03T03:49:06;24.00;41.60
69932;DHT22;57243;52.064;5.116;2022-09-03T03:51:32;24.00;41.50
69932;DHT22;57243;52.064;5.116;2022-09-03T03:53:58;24.00;41.60
69932;DHT22;57243;52.064;5.116;2022-09-03T03:56:25;24.00;41.50
69932;DHT22;57243;52.064;5.116;2022-09-03T03:58:52;24.00;41.50
69932;DHT22;57243;52.064;5.116;2022-09-03T04:01:23;24.00;41.60
69932;DHT22;57243;52.064;5.116;2022-09-03T04:03:49;24.00;41.50
69932;DHT22;57243;52.064;5.116;2022-09-03T04:06:17;24.00;41.60
69932;DHT22;57243;52.064;5.116;2022-09-03T04:08:45;24.00;41.50
69932;DHT22;57243;52.064;5.116;2022-09-03T04:11:14;24.00;41.50
69932;DHT22;57243;52.064;5.116;2022-09-03T04:13:41;24.00;41.60
69932;DHT22;57243;52.064;5.116;2022-09-03T04:16:09;24.00;41.60
69932;DHT22;57243;52.064;5.116;2022-09-03T04:18:36;24.00;41.60
69932;DHT22;57243;52.064;5.116;2022-09-03T04:21:12;24.00;41.60
69932;DHT22;57243;52.064;5.116;2022-09-03T04:23:40;24.00;41.60
69932;DHT22;57243;52.064;5.116;2022-09-03T04:26:08;24.00;41.60
69932;DHT22;57243;52.064;5.116;2022-09-03T04:28:34;24.00;41.70
69932;DHT22;57243;52.064;5.116;2022-09-03T04:31:02;24.00;41.60
69932;DHT22;57243;52.064;5.116;2022-09-03T04:33:29;23.90;41.60
69932;DHT22;57243;52.064;5.116;2022-09-03T04:36:14;24.00;41.70
69932;DHT22;57243;52.064;5.116;2022-09-03T04:38:43;24.00;41.60
69932;DHT22;57243;52.064;5.116;2022-09-03T04:41:10;24.00;41.70
69932;DHT22;57243;52.064;5.116;2022-09-03T04:43:36;24.00;41.60
69932;DHT22;57243;52.064;5.116;2022-09-03T04:46:04;23.90;41.60
69932;DHT22;57243;52.064;5.116;2022-09-03T04:48:34;24.00;41.70
69932;DHT22;57243;52.064;5.116;2022-09-03T04:51:02;23.90;41.70
69932;DHT22;57243;52.064;5.116;2022-09-03T04:53:35;23.90;41.60
69932;DHT22;57243;52.064;5.116;2022-09-03T04:56:01;23.90;41.70
69932;DHT22;57243;52.064;5.116;2022-09-03T04:58:27;23.90;41.70
69932;DHT22;57243;52.064;5.116;2022-09-03T05:00:53;23.90;41.60
69932;DHT22;57243;52.064;5.116;2022-09-03T05:03:18;23.90;41.70
69932;DHT22;57243;52.064;5.116;2022-09-03T05:05:52;24.00;41.60
69932;DHT22;57243;52.064;5.116;2022-09-03T05:08:18;23.90;41.60
69932;DHT22;57243;52.064;5.116;2022-09-03T05:10:43;23.90;41.60
69932;DHT22;57243;52.064;5.116;2022-09-03T05:13:09;23.90;41.60
69932;DHT22;57243;52.064;5.116;2022-09-03T05:15:34;23.90;41.60
69932;DHT22;57243;52.064;5.116;2022-09-03T05:18:01;23.90;41.60
69932;DHT22;57243;52.064;5.116;2022-09-03T05:20:28;23.90;41.70
69932;DHT22;57243;52.064;5.116;2022-09-03T05:23:01;23.90;41.60
69932;DHT22;57243;52.064;5.116;2022-09-03T05:25:28;23.90;41.70
69932;DHT22;57243;52.064;5.116;2022-09-03T05:27:56;23.90;41.70
69932;DHT22;57243;52.064;5.116;2022-09-03T05:30:22;23.90;41.70
69932;DHT22;57243;52.064;5.116;2022-09-03T05:32:48;23.90;41.70
69932;DHT22;57243;52.064;5.116;2022-09-03T05:35:14;23.90;41.70
69932;DHT22;57243;52.064;5.116;2022-09-03T05:37:39;23.90;41.70
69932;DHT22;57243;52.064;5.116;2022-09-03T05:40:06;23.90;41.70
69932;DHT22;57243;52.064;5.116;2022-09-03T05:42:33;23.90;41.70
69932;DHT22;57243;52.064;5.116;2022-09-03T05:45:08;23.90;41.70
69932;DHT22;57243;52.064;5.116;2022-09-03T05:47:37;23.90;41.70
69932;DHT22;57243;52.064;5.116;2022-09-03T05:50:07;23.90;41.70
69932;DHT22;57243;52.064;5.116;2022-09-03T05:52:35;23.90;41.70
69932;DHT22;57243;52.064;5.116;2022-09-03T05:55:01;23.90;41.70
69932;DHT22;57243;52.064;5.116;2022-09-03T05:57:27;23.90;41.70
69932;DHT22;57243;52.064;5.116;2022-09-03T05:59:54;23.90;41.70
69932;DHT22;57243;52.064;5.116;2022-09-03T06:02:19;23.90;41.60
69932;DHT22;57243;52.064;5.116;2022-09-03T06:04:45;23.90;41.70
69932;DHT22;57243;52.064;5.116;2022-09-03T06:07:11;23.90;41.70
69932;DHT22;57243;52.064;5.116;2022-09-03T06:09:37;23.90;41.70
69932;DHT22;57243;52.064;5.116;2022-09-03T06:12:03;23.90;41.70
69932;DHT22;57243;52.064;5.116;2022-09-03T06:14:28;23.90;41.70
69932;DHT22;57243;52.064;5.116;2022-09-03T06:16:54;23.90;41.70
69932;DHT22;57243;52.064;5.116;2022-09-03T06:19:21;23.90;41.70
69932;DHT22;57243;52.064;5.116;2022-09-03T06:21:47;23.90;41.70
69932;DHT22;57243;52.064;5.116;2022-09-03T06:24:15;23.90;41.70
69932;DHT22;57243;52.064;5.116;2022-09-03T06:26:41;23.90;41.70
69932;DHT22;57243;52.064;5.116;2022-09-03T06:29:07;23.90;41.70
69932;DHT22;57243;52.064;5.116;2022-09-03T06:31:32;23.90;41.80
69932;DHT22;57243;52.064;5.116;2022-09-03T06:34:00;23.90;41.70
69932;DHT22;57243;52.064;5.116;2022-09-03T06:36:25;23.90;41.70
69932;DHT22;57243;52.064;5.116;2022-09-03T06:38:53;23.90;41.70
69932;DHT22;57243;52.064;5.116;2022-09-03T06:41:21;23.90;41.70
69932;DHT22;57243;52.064;5.116;2022-09-03T06:43:56;23.90;41.70
69932;DHT22;57243;52.064;5.116;2022-09-03T06:46:23;23.90;41.80
69932;DHT22;57243;52.064;5.116;2022-09-03T06:48:49;23.90;41.70
69932;DHT22;57243;52.064;5.116;2022-09-03T06:51:20;24.00;41.80
69932;DHT22;57243;52.064;5.116;2022-09-03T06:53:48;23.90;41.70
69932;DHT22;57243;52.064;5.116;2022-09-03T06:56:18;23.90;41.80
69932;DHT22;57243;52.064;5.116;2022-09-03T06:58:46;24.00;41.70
69932;DHT22;57243;52.064;5.116;2022-09-03T07:01:14;24.00;41.70
69932;DHT22;57243;52.064;5.116;2022-09-03T07:03:42;24.00;41.80
69932;DHT22;57243;52.064;5.116;2022-09-03T07:06:13;23.90;41.70
69932;DHT22;57243;52.064;5.116;2022-09-03T07:08:39;23.90;41.70
69932;DHT22;57243;52.064;5.116;2022-09-03T07:11:15;23.90;41.80
69932;DHT22;57243;52.064;5.116;2022-09-03T07:13:43;24.00;41.70
69932;DHT22;57243;52.064;5.116;2022-09-03T07:16:12;24.00;41.80
69932;DHT22;57243;52.064;5.116;2022-09-03T07:18:38;24.00;41.70
69932;DHT22;57243;52.064;5.116;2022-09-03T07:21:07;23.90;41.60
69932;DHT22;57243;52.064;5.116;2022-09-03T07:23:34;23.90;41.70
69932;DHT22;57243;52.064;5.116;2022-09-03T07:26:02;23.90;41.70
69932;DHT22;57243;52.064;5.116;2022-09-03T07:28:29;23.90;41.60
69932;DHT22;57243;52.064;5.116;2022-09-03T07:31:05;23.90;41.80
69932;DHT22;57243;52.064;5.116;2022-09-03T07:33:31;24.00;42.30
69932;DHT22;57243;52.064;5.116;2022-09-03T07:36:05;24.00;41.90
69932;DHT22;57243;52.064;5.116;2022-09-03T07:38:32;24.00;42.00
69932;DHT22;57243;52.064;5.116;2022-09-03T07:40:59;24.00;42.10
69932;DHT22;57243;52.064;5.116;2022-09-03T07:43:27;24.00;42.30
69932;DHT22;57243;52.064;5.116;2022-09-03T07:45:54;24.10;42.30
69932;DHT22;57243;52.064;5.116;2022-09-03T07:48:21;24.10;42.20
69932;DHT22;57243;52.064;5.116;2022-09-03T07:50:47;24.00;42.10
69932;DHT22;57243;52.064;5.116;2022-09-03T07:53:15;24.00;42.00
69932;DHT22;57243;52.064;5.116;2022-09-03T07:55:41;24.00;41.90
69932;DHT22;57243;52.064;5.116;2022-09-03T07:58:08;24.00;41.80
69932;DHT22;57243;52.064;5.116;2022-09-03T08:00:35;24.00;41.70
69932;DHT22;57243;52.064;5.116;2022-09-03T08:03:01;24.00;41.70
69932;DHT22;57243;52.064;5.116;2022-09-03T08:05:31;24.00;41.50
69932;DHT22;57243;52.064;5.116;2022-09-03T08:07:59;24.00;41.80
69932;DHT22;57243;52.064;5.116;2022-09-03T08:10:26;24.00;41.80
69932;DHT22;57243;52.064;5.116;2022-09-03T08:12:55;24.00;41.90
69932;DHT22;57243;52.064;5.116;2022-09-03T08:15:21;24.00;42.20
69932;DHT22;57243;52.064;5.116;2022-09-03T08:17:46;24.00;42.50
69932;DHT22;57243;52.064;5.116;2022-09-03T08:20:12;24.00;43.00
69932;DHT22;57243;52.064;5.116;2022-09-03T08:22:37;24.00;43.40
69932;DHT22;57243;52.064;5.116;2022-09-03T08:25:03;24.00;43.20
69932;DHT22;57243;52.064;5.116;2022-09-03T08:27:30;24.00;43.70
69932;DHT22;57243;52.064;5.116;2022-09-03T08:29:56;24.00;44.00
69932;DHT22;57243;52.064;5.116;2022-09-03T08:32:21;24.00;43.60
69932;DHT22;57243;52.064;5.116;2022-09-03T08:34:47;24.00;43.90
69932;DHT22;57243;52.064;5.116;2022-09-03T08:37:12;24.00;43.80
69932;DHT22;57243;52.064;5.116;2022-09-03T08:39:38;24.00;43.80
69932;DHT22;57243;52.064;5.116;2022-09-03T08:44:53;24.00;43.90
69932;DHT22;57243;52.064;5.116;2022-09-03T08:47:28;24.10;44.20
69932;DHT22;57243;52.064;5.116;2022-09-03T08:50:03;24.10;44.00
69932;DHT22;57243;52.064;5.116;2022-09-03T08:52:47;24.10;44.40
69932;DHT22;57243;52.064;5.116;2022-09-03T08:55:31;24.10;44.50
69932;DHT22;57243;52.064;5.116;2022-09-03T08:58:07;24.20;44.40
69932;DHT22;57243;52.064;5.116;2022-09-03T09:23:02;24.20;44.30
69932;DHT22;57243;52.064;5.116;2022-09-03T09:25:28;24.20;44.50
69932;DHT22;57243;52.064;5.116;2022-09-03T09:28:02;24.20;45.00
69932;DHT22;57243;52.064;5.116;2022-09-03T09:30:29;24.20;44.40
69932;DHT22;57243;52.064;5.116;2022-09-03T09:32:55;24.20;44.20
69932;DHT22;57243;52.064;5.116;2022-09-03T09:35:22;24.20;44.10
69932;DHT22;57243;52.064;5.116;2022-09-03T09:37:53;24.20;44.10
69932;DHT22;57243;52.064;5.116;2022-09-03T09:40:31;24.10;44.10
69932;DHT22;57243;52.064;5.116;2022-09-03T09:43:15;24.10;44.10
69932;DHT22;57243;52.064;5.116;2022-09-03T09:45:50;24.20;44.60
69932;DHT22;57243;52.064;5.116;2022-09-03T09:50:41;24.20;44.60
69932;DHT22;57243;52.064;5.116;2022-09-03T09:53:09;24.20;44.30
69932;DHT22;57243;52.064;5.116;2022-09-03T09:55:53;24.20;44.90
69932;DHT22;57243;52.064;5.116;2022-09-03T09:58:23;24.20;44.60
69932;DHT22;57243;52.064;5.116;2022-09-03T10:01:21;24.30;44.50
69932;DHT22;57243;52.064;5.116;2022-09-03T10:03:58;24.30;44.70
69932;DHT22;57243;52.064;5.116;2022-09-03T10:06:29;24.30;44.80
69932;DHT22;57243;52.064;5.116;2022-09-03T10:09:16;24.30;45.00
69932;DHT22;57243;52.064;5.116;2022-09-03T10:14:29;24.30;44.80
69932;DHT22;57243;52.064;5.116;2022-09-03T10:17:23;24.30;44.80
69932;DHT22;57243;52.064;5.116;2022-09-03T10:36:46;24.40;45.50
69932;DHT22;57243;52.064;5.116;2022-09-03T10:39:24;24.40;46.20
69932;DHT22;57243;52.064;5.116;2022-09-03T10:51:04;24.40;45.60
69932;DHT22;57243;52.064;5.116;2022-09-03T10:56:21;24.50;46.40
69932;DHT22;57243;52.064;5.116;2022-09-03T11:01:54;24.50;46.80
69932;DHT22;57243;52.064;5.116;2022-09-03T11:09:45;24.40;46.20
69932;DHT22;57243;52.064;5.116;2022-09-03T11:12:21;24.50;46.40
69932;DHT22;57243;52.064;5.116;2022-09-03T11:15:05;24.40;46.30
69932;DHT22;57243;52.064;5.116;2022-09-03T11:17:37;24.40;46.30
69932;DHT22;57243;52.064;5.116;2022-09-03T11:20:11;24.50;46.10
69932;DHT22;57243;52.064;5.116;2022-09-03T11:22:40;24.40;45.90
69932;DHT22;57243;52.064;5.116;2022-09-03T11:25:07;24.50;45.90
69932;DHT22;57243;52.064;5.116;2022-09-03T11:30:23;24.50;46.00
69932;DHT22;57243;52.064;5.116;2022-09-03T11:32:57;24.50;46.00
69932;DHT22;57243;52.064;5.116;2022-09-03T11:38:00;24.50;46.40
69932;DHT22;57243;52.064;5.116;2022-09-03T11:40:34;24.60;46.20
69932;DHT22;57243;52.064;5.116;2022-09-03T11:43:27;24.60;45.90
69932;DHT22;57243;52.064;5.116;2022-09-03T11:46:10;24.60;45.80
69932;DHT22;57243;52.064;5.116;2022-09-03T11:48:43;24.60;45.90
69932;DHT22;57243;52.064;5.116;2022-09-03T11:51:34;24.60;46.10
69932;DHT22;57243;52.064;5.116;2022-09-03T11:54:03;24.60;45.80
69932;DHT22;57243;52.064;5.116;2022-09-03T11:56:31;24.60;45.90
69932;DHT22;57243;52.064;5.116;2022-09-03T12:01:29;24.60;45.90
69932;DHT22;57243;52.064;5.116;2022-09-03T12:04:02;24.60;45.90
69932;DHT22;57243;52.064;5.116;2022-09-03T12:06:56;24.70;45.80
69932;DHT22;57243;52.064;5.116;2022-09-03T12:15:29;24.80;46.40
69932;DHT22;57243;52.064;5.116;2022-09-03T12:18:03;24.80;46.20
69932;DHT22;57243;52.064;5.116;2022-09-03T12:25:53;24.80;45.80
69932;DHT22;57243;52.064;5.116;2022-09-03T12:28:22;24.80;45.70
69932;DHT22;57243;52.064;5.116;2022-09-03T12:30:50;24.80;45.60
69932;DHT22;57243;52.064;5.116;2022-09-03T12:33:19;24.80;45.60
69932;DHT22;57243;52.064;5.116;2022-09-03T12:35:58;24.80;45.70
69932;DHT22;57243;52.064;5.116;2022-09-03T12:38:26;24.80;45.70
69932;DHT22;57243;52.064;5.116;2022-09-03T12:40:52;24.80;45.80
69932;DHT22;57243;52.064;5.116;2022-09-03T12:43:19;24.80;45.90
69932;DHT22;57243;52.064;5.116;2022-09-03T12:45:47;24.80;45.90
69932;DHT22;57243;52.064;5.116;2022-09-03T12:48:14;24.80;46.10
69932;DHT22;57243;52.064;5.116;2022-09-03T12:50:40;24.80;46.10
69932;DHT22;57243;52.064;5.116;2022-09-03T12:53:08;24.80;46.30
69932;DHT22;57243;52.064;5.116;2022-09-03T12:55:45;24.70;46.20
69932;DHT22;57243;52.064;5.116;2022-09-03T12:58:21;24.80;46.20
69932;DHT22;57243;52.064;5.116;2022-09-03T13:03:44;24.80;46.30
69932;DHT22;57243;52.064;5.116;2022-09-03T13:06:13;24.80;46.40
69932;DHT22;57243;52.064;5.116;2022-09-03T13:08:52;24.80;46.20
69932;DHT22;57243;52.064;5.116;2022-09-03T13:11:21;24.80;46.10
69932;DHT22;57243;52.064;5.116;2022-09-03T13:14:00;24.80;46.20
69932;DHT22;57243;52.064;5.116;2022-09-03T13:19:25;24.80;46.30
69932;DHT22;57243;52.064;5.116;2022-09-03T13:30:22;24.80;46.30
69932;DHT22;57243;52.064;5.116;2022-09-03T13:44:29;24.90;46.40
69932;DHT22;57243;52.064;5.116;2022-09-03T13:47:22;24.90;46.30
69932;DHT22;57243;52.064;5.116;2022-09-03T13:58:18;24.90;46.00
69932;DHT22;57243;52.064;5.116;2022-09-03T14:08:55;25.00;46.00
69932;DHT22;57243;52.064;5.116;2022-09-03T14:11:43;25.00;46.10
69932;DHT22;57243;52.064;5.116;2022-09-03T14:14:32;25.10;46.00
69932;DHT22;57243;52.064;5.116;2022-09-03T14:18:07;25.10;45.90
69932;DHT22;57243;52.064;5.116;2022-09-03T14:25:24;25.00;45.80
69932;DHT22;57243;52.064;5.116;2022-09-03T14:27:51;25.00;45.70
69932;DHT22;57243;52.064;5.116;2022-09-03T14:38:35;25.00;46.00
69932;DHT22;57243;52.064;5.116;2022-09-03T14:41:18;25.00;45.90
69932;DHT22;57243;52.064;5.116;2022-09-03T14:47:08;25.00;46.00
69932;DHT22;57243;52.064;5.116;2022-09-03T14:50:02;25.00;45.80
69932;DHT22;57243;52.064;5.116;2022-09-03T14:56:28;25.00;45.80
69932;DHT22;57243;52.064;5.116;2022-09-03T15:01:28;25.00;45.40
69932;DHT22;57243;52.064;5.116;2022-09-03T15:04:23;25.00;45.30
69932;DHT22;57243;52.064;5.116;2022-09-03T15:10:00;25.00;45.50
69932;DHT22;57243;52.064;5.116;2022-09-03T15:15:07;25.10;45.60
69932;DHT22;57243;52.064;5.116;2022-09-03T15:20:48;25.10;45.50
69932;DHT22;57243;52.064;5.116;2022-09-03T15:26:11;25.10;45.40
69932;DHT22;57243;52.064;5.116;2022-09-03T15:31:56;25.10;45.50
69932;DHT22;57243;52.064;5.116;2022-09-03T15:37:47;25.10;45.70
69932;DHT22;57243;52.064;5.116;2022-09-03T15:40:40;25.10;45.90
69932;DHT22;57243;52.064;5.116;2022-09-03T15:43:29;25.20;45.90
69932;DHT22;57243;52.064;5.116;2022-09-03T15:46:27;25.20;45.90
69932;DHT22;57243;52.064;5.116;2022-09-03T15:48:57;25.20;45.90
69932;DHT22;57243;52.064;5.116;2022-09-03T15:54:01;25.20;45.90
69932;DHT22;57243;52.064;5.116;2022-09-03T15:56:36;25.20;46.10
69932;DHT22;57243;52.064;5.116;2022-09-03T16:02:30;25.20;46.20
69932;DHT22;57243;52.064;5.116;2022-09-03T16:15:18;25.10;46.40
69932;DHT22;57243;52.064;5.116;2022-09-03T16:23:40;25.10;46.30
69932;DHT22;57243;52.064;5.116;2022-09-03T16:32:26;25.10;46.30
69932;DHT22;57243;52.064;5.116;2022-09-03T16:42:43;25.00;46.50
69932;DHT22;57243;52.064;5.116;2022-09-03T16:59:10;25.10;48.30
69932;DHT22;57243;52.064;5.116;2022-09-03T17:10:13;25.20;50.80
69932;DHT22;57243;52.064;5.116;2022-09-03T17:13:29;25.30;50.30
69932;DHT22;57243;52.064;5.116;2022-09-03T17:21:47;25.20;49.10
69932;DHT22;57243;52.064;5.116;2022-09-03T17:29:59;25.10;49.40
69932;DHT22;57243;52.064;5.116;2022-09-03T17:32:57;25.10;49.20
69932;DHT22;57243;52.064;5.116;2022-09-03T17:43:51;25.00;49.10
69932;DHT22;57243;52.064;5.116;2022-09-03T17:49:41;25.00;48.90
69932;DHT22;57243;52.064;5.116;2022-09-03T17:52:24;25.00;48.90
69932;DHT22;57243;52.064;5.116;2022-09-03T17:54:58;25.00;48.80
69932;DHT22;57243;52.064;5.116;2022-09-03T17:57:31;25.00;48.60
69932;DHT22;57243;52.064;5.116;2022-09-03T18:00:10;25.00;48.70
69932;DHT22;57243;52.064;5.116;2022-09-03T18:05:25;25.00;48.80
69932;DHT22;57243;52.064;5.116;2022-09-03T18:07:59;25.00;48.90
69932;DHT22;57243;52.064;5.116;2022-09-03T18:15:28;25.00;49.30
69932;DHT22;57243;52.064;5.116;2022-09-03T18:18:09;25.00;50.10
69932;DHT22;57243;52.064;5.116;2022-09-03T18:20:57;25.10;50.00
69932;DHT22;57243;52.064;5.116;2022-09-03T18:26:33;25.20;50.10
69932;DHT22;57243;52.064;5.116;2022-09-03T18:32:25;25.30;50.60
69932;DHT22;57243;52.064;5.116;2022-09-03T18:35:10;25.30;50.70
69932;DHT22;57243;52.064;5.116;2022-09-03T18:37:54;25.30;50.70
69932;DHT22;57243;52.064;5.116;2022-09-03T18:40:58;25.20;50.80
69932;DHT22;57243;52.064;5.116;2022-09-03T18:43:59;25.20;50.80
69932;DHT22;57243;52.064;5.116;2022-09-03T18:46:58;25.20;51.20
69932;DHT22;57243;52.064;5.116;2022-09-03T18:50:17;25.20;50.90
69932;DHT22;57243;52.064;5.116;2022-09-03T18:53:10;25.20;51.20
69932;DHT22;57243;52.064;5.116;2022-09-03T18:59:04;25.20;50.80
69932;DHT22;57243;52.064;5.116;2022-09-03T19:01:50;25.10;50.60
69932;DHT22;57243;52.064;5.116;2022-09-03T19:04:46;25.10;50.60
69932;DHT22;57243;52.064;5.116;2022-09-03T19:07:58;25.10;50.70
69932;DHT22;57243;52.064;5.116;2022-09-03T19:11:24;25.10;50.50
69932;DHT22;57243;52.064;5.116;2022-09-03T19:14:05;25.10;50.80
69932;DHT22;57243;52.064;5.116;2022-09-03T19:17:15;25.10;50.50
69932;DHT22;57243;52.064;5.116;2022-09-03T19:22:45;25.10;50.40
69932;DHT22;57243;52.064;5.116;2022-09-03T19:25:30;25.10;50.60
69932;DHT22;57243;52.064;5.116;2022-09-03T19:37:30;25.10;51.00
69932;DHT22;57243;52.064;5.116;2022-09-03T19:40:30;25.10;51.20
69932;DHT22;57243;52.064;5.116;2022-09-03T19:43:38;25.10;51.40
69932;DHT22;57243;52.064;5.116;2022-09-03T19:46:39;25.10;51.00
69932;DHT22;57243;52.064;5.116;2022-09-03T19:53:26;25.10;50.50
69932;DHT22;57243;52.064;5.116;2022-09-03T19:55:48;25.10;50.50
69932;DHT22;57243;52.064;5.116;2022-09-03T19:58:39;25.10;50.50
69932;DHT22;57243;52.064;5.116;2022-09-03T20:01:30;25.10;50.40
69932;DHT22;57243;52.064;5.116;2022-09-03T20:04:16;25.10;50.40
69932;DHT22;57243;52.064;5.116;2022-09-03T20:07:02;25.10;50.60
69932;DHT22;57243;52.064;5.116;2022-09-03T20:09:49;25.10;50.90
69932;DHT22;57243;52.064;5.116;2022-09-03T20:12:38;25.10;50.50
69932;DHT22;57243;52.064;5.116;2022-09-03T20:15:06;25.00;50.20
69932;DHT22;57243;52.064;5.116;2022-09-03T20:17:56;25.00;50.00
69932;DHT22;57243;52.064;5.116;2022-09-03T20:20:45;25.00;49.80
69932;DHT22;57243;52.064;5.116;2022-09-03T20:29:00;25.00;49.70
69932;DHT22;57243;52.064;5.116;2022-09-03T20:53:39;25.10;50.70
69932;DHT22;57243;52.064;5.116;2022-09-03T20:56:32;25.00;50.70
69932;DHT22;57243;52.064;5.116;2022-09-03T20:59:21;25.00;50.70
69932;DHT22;57243;52.064;5.116;2022-09-03T21:07:17;25.00;50.70
69932;DHT22;57243;52.064;5.116;2022-09-03T21:13:00;25.00;50.70
69932;DHT22;57243;52.064;5.116;2022-09-03T21:15:56;25.00;50.80
69932;DHT22;57243;52.064;5.116;2022-09-03T21:18:40;25.00;50.60
69932;DHT22;57243;52.064;5.116;2022-09-03T21:21:27;25.00;50.90
69932;DHT22;57243;52.064;5.116;2022-09-03T21:24:02;25.00;50.90
69932;DHT22;57243;52.064;5.116;2022-09-03T21:26:33;25.00;50.70
69932;DHT22;57243;52.064;5.116;2022-09-03T21:29:23;25.00;50.90
69932;DHT22;57243;52.064;5.116;2022-09-03T21:34:43;25.00;50.70
69932;DHT22;57243;52.064;5.116;2022-09-03T21:37:15;25.00;50.60
69932;DHT22;57243;52.064;5.116;2022-09-03T21:40:02;25.00;50.60
69932;DHT22;57243;52.064;5.116;2022-09-03T21:45:19;25.00;50.70
69932;DHT22;57243;52.064;5.116;2022-09-03T21:47:52;25.00;51.00
69932;DHT22;57243;52.064;5.116;2022-09-03T21:50:27;25.10;50.80
69932;DHT22;57243;52.064;5.116;2022-09-03T21:53:14;25.10;50.80
69932;DHT22;57243;52.064;5.116;2022-09-03T21:56:02;25.10;50.80
69932;DHT22;57243;52.064;5.116;2022-09-03T21:58:48;25.10;51.00
69932;DHT22;57243;52.064;5.116;2022-09-03T22:01:36;25.10;51.00
69932;DHT22;57243;52.064;5.116;2022-09-03T22:04:06;25.10;50.70
69932;DHT22;57243;52.064;5.116;2022-09-03T22:09:08;25.10;50.80
69932;DHT22;57243;52.064;5.116;2022-09-03T22:11:57;25.10;50.70
69932;DHT22;57243;52.064;5.116;2022-09-03T22:14:25;25.10;50.70
69932;DHT22;57243;52.064;5.116;2022-09-03T22:17:10;25.00;50.80
69932;DHT22;57243;52.064;5.116;2022-09-03T22:19:41;25.00;50.70
69932;DHT22;57243;52.064;5.116;2022-09-03T22:28:19;25.00;50.40
69932;DHT22;57243;52.064;5.116;2022-09-03T22:31:05;25.00;50.30
69932;DHT22;57243;52.064;5.116;2022-09-03T22:33:47;25.00;50.50
69932;DHT22;57243;52.064;5.116;2022-09-03T22:36:20;25.00;50.70
69932;DHT22;57243;52.064;5.116;2022-09-03T22:41:54;25.00;50.50
69932;DHT22;57243;52.064;5.116;2022-09-03T22:50:19;25.00;51.70
69932;DHT22;57243;52.064;5.116;2022-09-03T22:52:57;25.00;51.00
69932;DHT22;57243;52.064;5.116;2022-09-03T22:55:24;24.90;51.10
69932;DHT22;57243;52.064;5.116;2022-09-03T22:57:56;24.90;51.50
69932;DHT22;57243;52.064;5.116;2022-09-03T23:00:23;24.90;51.40